sensor_id;sensor_type;location;lat;lon;timestamp;pressure;altitude;pressure_sealevel;temperature;humidity
25420;BME280;13354;48.174;11.566;2022-12-07T00:01:13;95656.47;;;3.28;88.75
25420;BME280;13354;48.174;11.566;2022-12-07T00:03:40;95650.56;;;3.44;88.77
25420;BME280;13354;48.174;11.566;2022-12-07T00:06:08;95643.19;;;3.57;88.04
25420;BME280;13354;48.174;11.566;2022-12-07T00:08:35;95643.84;;;3.59;87.63
25420;BME280;13354;48.174;11.566;2022-12-07T00:11:05;95644.28;;;3.55;87.33
25420;BME280;13354;48.174;11.566;2022-12-07T00:13:32;95647.13;;;3.44;87.56
25420;BME280;13354;48.174;11.566;2022-12-07T00:16:05;95650.03;;;3.41;87.65
25420;BME280;13354;48.174;11.566;2022-12-07T00:18:31;95643.91;;;3.32;87.98
25420;BME280;13354;48.174;11.566;2022-12-07T00:21:05;95640.56;;;3.39;87.82
25420;BME280;13354;48.174;11.566;2022-12-07T00:23:31;95642.03;;;3.42;87.97
25420;BME280;13354;48.174;11.566;2022-12-07T00:26:03;95638.16;;;3.46;87.92
25420;BME280;13354;48.174;11.566;2022-12-07T00:28:29;95639.56;;;3.41;87.56
25420;BME280;13354;48.174;11.566;2022-12-07T00:31:00;95636.13;;;3.22;88.01
25420;BME280;13354;48.174;11.566;2022-12-07T00:33:26;95640.53;;;3.22;88.39
25420;BME280;13354;48.174;11.566;2022-12-07T00:35:57;95629.09;;;3.23;88.40
25420;BME280;13354;48.174;11.566;2022-12-07T00:38:23;95630.50;;;3.35;87.82
25420;BME280;13354;48.174;11.566;2022-12-07T00:40:59;95634.78;;;3.36;87.42
25420;BME280;13354;48.174;11.566;2022-12-07T00:43:26;95637.13;;;3.39;87.25
25420;BME280;13354;48.174;11.566;2022-12-07T00:45:52;95633.00;;;3.36;86.83
25420;BME280;13354;48.174;11.566;2022-12-07T00:48:18;95634.72;;;3.28;87.54
25420;BME280;13354;48.174;11.566;2022-12-07T00:50:43;95639.06;;;3.37;87.24
25420;BME280;13354;48.174;11.566;2022-12-07T00:53:08;95630.44;;;3.45;86.41
25420;BME280;13354;48.174;11.566;2022-12-07T00:55:37;95636.72;;;3.34;86.55
25420;BME280;13354;48.174;11.566;2022-12-07T00:58:03;95635.22;;;3.31;87.08
25420;BME280;13354;48.174;11.566;2022-12-07T01:00:29;95634.50;;;3.39;86.73
25420;BME280;13354;48.174;11.566;2022-12-07T01:02:55;95638.28;;;3.27;87.04
25420;BME280;13354;48.174;11.566;2022-12-07T01:05:20;95625.19;;;3.27;87.02
25420;BME280;13354;48.174;11.566;2022-12-07T01:07:45;95628.50;;;3.29;87.28
25420;BME280;13354;48.174;11.566;2022-12-07T01:10:12;95633.22;;;3.25;87.59
25420;BME280;13354;48.174;11.566;2022-12-07T01:12:38;95627.53;;;3.30;86.83
25420;BME280;13354;48.174;11.566;2022-12-07T01:15:04;95636.72;;;3.34;87.33
25420;BME280;13354;48.174;11.566;2022-12-07T01:17:30;95630.09;;;3.57;86.21
25420;BME280;13354;48.174;11.566;2022-12-07T01:19:55;95628.41;;;3.38;86.19
25420;BME280;13354;48.174;11.566;2022-12-07T01:22:20;95632.84;;;3.38;86.62
25420;BME280;13354;48.174;11.566;2022-12-07T01:24:46;95631.13;;;3.47;86.46
25420;BME280;13354;48.174;11.566;2022-12-07T01:27:12;95634.41;;;3.31;87.13
25420;BME280;13354;48.174;11.566;2022-12-07T01:29:37;95636.34;;;3.29;87.75
25420;BME280;13354;48.174;11.566;2022-12-07T01:32:03;95634.56;;;3.29;87.60
25420;BME280;13354;48.174;11.566;2022-12-07T01:34:28;95633.94;;;3.18;88.14
25420;BME280;13354;48.174;11.566;2022-12-07T01:36:53;95632.53;;;3.23;88.24
25420;BME280;13354;48.174;11.566;2022-12-07T01:39:19;95634.03;;;3.26;87.86
25420;BME280;13354;48.174;11.566;2022-12-07T01:41:44;95634.41;;;3.31;87.82
25420;BME280;13354;48.174;11.566;2022-12-07T01:46:53;95626.50;;;3.41;87.51
25420;BME280;13354;48.174;11.566;2022-12-07T01:49:35;95631.41;;;3.26;87.84
25420;BME280;13354;48.174;11.566;2022-12-07T01:54:32;95630.44;;;3.27;88.35
25420;BME280;13354;48.174;11.566;2022-12-07T01:56:58;95631.34;;;3.18;88.68
25420;BME280;13354;48.174;11.566;2022-12-07T01:59:24;95616.59;;;3.17;88.83
25420;BME280;13354;48.174;11.566;2022-12-07T02:01:51;95620.59;;;3.21;88.96
25420;BME280;13354;48.174;11.566;2022-12-07T02:04:18;95628.50;;;3.29;88.52
25420;BME280;13354;48.174;11.566;2022-12-07T02:06:44;95625.06;;;3.28;88.05
25420;BME280;13354;48.174;11.566;2022-12-07T02:09:11;95620.78;;;3.27;88.15
25420;BME280;13354;48.174;11.566;2022-12-07T02:11:37;95617.81;;;3.22;88.75
25420;BME280;13354;48.174;11.566;2022-12-07T02:14:02;95625.41;;;3.15;89.14
25420;BME280;13354;48.174;11.566;2022-12-07T02:16:37;95623.41;;;3.27;89.10
25420;BME280;13354;48.174;11.566;2022-12-07T02:21:58;95620.59;;;3.21;88.71
25420;BME280;13354;48.174;11.566;2022-12-07T02:27:45;95617.97;;;3.21;88.46
25420;BME280;13354;48.174;11.566;2022-12-07T02:30:14;95606.88;;;3.27;88.18
25420;BME280;13354;48.174;11.566;2022-12-07T02:32:48;95609.28;;;3.20;88.15
25420;BME280;13354;48.174;11.566;2022-12-07T02:35:28;95609.28;;;3.20;88.56
25420;BME280;13354;48.174;11.566;2022-12-07T02:40:55;95613.25;;;3.24;88.21
25420;BME280;13354;48.174;11.566;2022-12-07T02:43:27;95612.09;;;3.09;88.71
25420;BME280;13354;48.174;11.566;2022-12-07T02:45:56;95608.63;;;3.18;88.89
25420;BME280;13354;48.174;11.566;2022-12-07T02:48:24;95609.44;;;3.19;88.68
25420;BME280;13354;48.174;11.566;2022-12-07T02:50:52;95607.34;;;3.22;88.32
25420;BME280;13354;48.174;11.566;2022-12-07T02:59:29;95603.38;;;3.18;87.58
25420;BME280;13354;48.174;11.566;2022-12-07T03:06:56;95604.94;;;3.11;88.40
25420;BME280;13354;48.174;11.566;2022-12-07T03:09:37;95601.97;;;3.06;88.53
25420;BME280;13354;48.174;11.566;2022-12-07T03:12:22;95608.28;;;3.03;89.20
25420;BME280;13354;48.174;11.566;2022-12-07T03:15:00;95605.09;;;3.09;88.75
25420;BME280;13354;48.174;11.566;2022-12-07T03:17:28;95606.88;;;3.09;88.56
25420;BME280;13354;48.174;11.566;2022-12-07T03:19:58;95604.72;;;3.22;88.27
25420;BME280;13354;48.174;11.566;2022-12-07T03:22:29;95608.44;;;3.20;87.56
25420;BME280;13354;48.174;11.566;2022-12-07T03:25:02;95599.94;;;3.18;87.44
25420;BME280;13354;48.174;11.566;2022-12-07T03:27:33;95605.19;;;3.18;87.90
25420;BME280;13354;48.174;11.566;2022-12-07T03:30:03;95607.63;;;3.19;88.05
25420;BME280;13354;48.174;11.566;2022-12-07T03:32:34;95599.19;;;3.25;87.91
25420;BME280;13354;48.174;11.566;2022-12-07T03:35:12;95601.88;;;3.15;87.67
25420;BME280;13354;48.174;11.566;2022-12-07T03:38:13;95599.19;;;3.07;87.95
25420;BME280;13354;48.174;11.566;2022-12-07T03:40:46;95600.69;;;3.10;88.08
25420;BME280;13354;48.174;11.566;2022-12-07T03:43:15;95601.34;;;3.12;87.96
25420;BME280;13354;48.174;11.566;2022-12-07T03:45:44;95599.34;;;3.06;88.39
25420;BME280;13354;48.174;11.566;2022-12-07T03:48:20;95591.91;;;3.01;88.33
25420;BME280;13354;48.174;11.566;2022-12-07T03:51:11;95605.50;;;3.05;88.47
25420;BME280;13354;48.174;11.566;2022-12-07T03:53:46;95596.19;;;3.02;88.38
25420;BME280;13354;48.174;11.566;2022-12-07T03:56:16;95594.94;;;3.06;88.54
25420;BME280;13354;48.174;11.566;2022-12-07T03:58:42;95600.44;;;3.03;88.59
25420;BME280;13354;48.174;11.566;2022-12-07T04:01:08;95598.56;;;2.96;89.06
25420;BME280;13354;48.174;11.566;2022-12-07T04:03:33;95579.75;;;3.10;89.03
25420;BME280;13354;48.174;11.566;2022-12-07T04:05:59;95581.84;;;3.06;88.45
25420;BME280;13354;48.174;11.566;2022-12-07T04:08:24;95585.59;;;3.22;87.47
25420;BME280;13354;48.174;11.566;2022-12-07T04:10:50;95579.22;;;3.06;88.06
25420;BME280;13354;48.174;11.566;2022-12-07T04:13:15;95584.06;;;3.01;88.07
25420;BME280;13354;48.174;11.566;2022-12-07T04:15:40;95583.53;;;2.98;88.01
25420;BME280;13354;48.174;11.566;2022-12-07T04:18:06;95580.34;;;3.22;88.05
25420;BME280;13354;48.174;11.566;2022-12-07T04:20:31;95583.34;;;3.27;87.46
25420;BME280;13354;48.174;11.566;2022-12-07T04:22:56;95591.16;;;3.09;87.71
25420;BME280;13354;48.174;11.566;2022-12-07T04:25:22;95587.31;;;3.13;88.01
25420;BME280;13354;48.174;11.566;2022-12-07T04:27:47;95589.25;;;3.29;88.16
25420;BME280;13354;48.174;11.566;2022-12-07T04:30:12;95589.09;;;3.30;88.19
25420;BME280;13354;48.174;11.566;2022-12-07T04:32:38;95592.09;;;3.18;88.53
25420;BME280;13354;48.174;11.566;2022-12-07T04:35:03;95594.03;;;3.15;88.99
25420;BME280;13354;48.174;11.566;2022-12-07T04:37:29;95594.63;;;3.09;89.31
25420;BME280;13354;48.174;11.566;2022-12-07T04:39:54;95591.38;;;2.98;90.31
25420;BME280;13354;48.174;11.566;2022-12-07T04:42:19;95595.59;;;3.26;89.85
25420;BME280;13354;48.174;11.566;2022-12-07T04:44:45;95585.66;;;3.30;89.95
25420;BME280;13354;48.174;11.566;2022-12-07T04:47:10;95581.13;;;3.32;89.85
25420;BME280;13354;48.174;11.566;2022-12-07T04:49:35;95584.03;;;3.29;90.42
25420;BME280;13354;48.174;11.566;2022-12-07T04:52:01;95586.19;;;3.15;91.05
25420;BME280;13354;48.174;11.566;2022-12-07T04:54:26;95590.31;;;3.36;90.96
25420;BME280;13354;48.174;11.566;2022-12-07T04:56:51;95589.56;;;3.26;91.22
25420;BME280;13354;48.174;11.566;2022-12-07T04:59:17;95589.72;;;3.24;91.50
25420;BME280;13354;48.174;11.566;2022-12-07T05:01:42;95584.16;;;3.27;91.49
25420;BME280;13354;48.174;11.566;2022-12-07T05:04:08;95596.28;;;3.10;92.00
25420;BME280;13354;48.174;11.566;2022-12-07T05:06:33;95587.69;;;3.18;92.92
25420;BME280;13354;48.174;11.566;2022-12-07T05:08:59;95588.44;;;3.10;92.71
25420;BME280;13354;48.174;11.566;2022-12-07T05:11:25;95591.88;;;3.11;92.76
25420;BME280;13354;48.174;11.566;2022-12-07T05:14:13;95593.88;;;2.99;93.14
25420;BME280;13354;48.174;11.566;2022-12-07T05:16:39;95592.97;;;3.08;93.51
25420;BME280;13354;48.174;11.566;2022-12-07T05:19:05;95590.88;;;3.12;92.94
25420;BME280;13354;48.174;11.566;2022-12-07T05:21:30;95589.63;;;3.16;92.59
25420;BME280;13354;48.174;11.566;2022-12-07T05:23:55;95589.47;;;3.18;92.34
25420;BME280;13354;48.174;11.566;2022-12-07T05:26:21;95593.78;;;3.09;92.41
25420;BME280;13354;48.174;11.566;2022-12-07T05:28:50;95585.34;;;3.15;92.08
25420;BME280;13354;48.174;11.566;2022-12-07T05:31:16;95588.88;;;3.06;92.51
25420;BME280;13354;48.174;11.566;2022-12-07T05:33:41;95593.13;;;3.07;93.10
25420;BME280;13354;48.174;11.566;2022-12-07T05:36:07;95590.25;;;3.28;92.21
25420;BME280;13354;48.174;11.566;2022-12-07T05:38:32;95587.53;;;3.20;92.11
25420;BME280;13354;48.174;11.566;2022-12-07T05:41:02;95587.50;;;3.02;91.64
25420;BME280;13354;48.174;11.566;2022-12-07T05:43:27;95601.19;;;2.96;91.86
25420;BME280;13354;48.174;11.566;2022-12-07T05:45:53;95593.94;;;3.07;91.54
25420;BME280;13354;48.174;11.566;2022-12-07T05:48:18;95591.34;;;3.07;91.08
25420;BME280;13354;48.174;11.566;2022-12-07T05:50:43;95590.72;;;2.96;91.19
25420;BME280;13354;48.174;11.566;2022-12-07T05:53:08;95588.56;;;2.91;91.84
25420;BME280;13354;48.174;11.566;2022-12-07T05:55:34;95582.44;;;3.00;91.54
25420;BME280;13354;48.174;11.566;2022-12-07T05:57:59;95583.53;;;2.98;91.55
25420;BME280;13354;48.174;11.566;2022-12-07T06:00:43;95587.78;;;2.81;92.15
25420;BME280;13354;48.174;11.566;2022-12-07T06:03:08;95595.34;;;3.02;91.87
25420;BME280;13354;48.174;11.566;2022-12-07T06:05:33;95598.28;;;2.99;91.03
25420;BME280;13354;48.174;11.566;2022-12-07T06:07:59;95595.34;;;2.84;91.96
25420;BME280;13354;48.174;11.566;2022-12-07T06:10:24;95596.00;;;2.86;91.89
25420;BME280;13354;48.174;11.566;2022-12-07T06:12:49;95599.34;;;2.78;92.53
25420;BME280;13354;48.174;11.566;2022-12-07T06:15:15;95599.78;;;2.74;92.79
25420;BME280;13354;48.174;11.566;2022-12-07T06:17:40;95604.00;;;2.84;92.85
25420;BME280;13354;48.174;11.566;2022-12-07T06:20:06;95607.34;;;2.77;93.35
25420;BME280;13354;48.174;11.566;2022-12-07T06:22:31;95601.13;;;2.78;93.08
25420;BME280;13354;48.174;11.566;2022-12-07T06:24:57;95602.16;;;2.95;92.65
25420;BME280;13354;48.174;11.566;2022-12-07T06:27:22;95611.56;;;2.87;91.83
25420;BME280;13354;48.174;11.566;2022-12-07T06:29:47;95608.88;;;2.97;91.74
25420;BME280;13354;48.174;11.566;2022-12-07T06:32:13;95603.72;;;2.87;91.62
25420;BME280;13354;48.174;11.566;2022-12-07T06:34:38;95604.47;;;2.98;91.53
25420;BME280;13354;48.174;11.566;2022-12-07T06:37:03;95608.97;;;2.78;91.82
25420;BME280;13354;48.174;11.566;2022-12-07T06:39:29;95611.25;;;2.90;92.34
25420;BME280;13354;48.174;11.566;2022-12-07T06:41:55;95618.63;;;2.77;92.19
25420;BME280;13354;48.174;11.566;2022-12-07T06:44:21;95613.94;;;2.81;92.18
25420;BME280;13354;48.174;11.566;2022-12-07T06:46:47;95612.50;;;2.86;91.93
25420;BME280;13354;48.174;11.566;2022-12-07T06:49:13;95615.66;;;2.90;91.73
25420;BME280;13354;48.174;11.566;2022-12-07T06:51:38;95615.03;;;2.78;91.88
25420;BME280;13354;48.174;11.566;2022-12-07T06:54:07;95616.28;;;2.74;91.50
25420;BME280;13354;48.174;11.566;2022-12-07T06:56:33;95616.44;;;2.73;91.93
25420;BME280;13354;48.174;11.566;2022-12-07T06:58:58;95621.44;;;2.66;91.51
25420;BME280;13354;48.174;11.566;2022-12-07T07:01:23;95623.44;;;2.72;91.76
25420;BME280;13354;48.174;11.566;2022-12-07T07:03:49;95630.81;;;2.59;92.19
25420;BME280;13354;48.174;11.566;2022-12-07T07:06:14;95620.19;;;2.60;92.49
25420;BME280;13354;48.174;11.566;2022-12-07T07:08:40;95615.81;;;2.88;92.84
25420;BME280;13354;48.174;11.566;2022-12-07T07:11:06;95623.22;;;2.93;92.65
25420;BME280;13354;48.174;11.566;2022-12-07T07:13:32;95621.84;;;2.89;92.11
25420;BME280;13354;48.174;11.566;2022-12-07T07:15:58;95622.75;;;2.98;91.91
25420;BME280;13354;48.174;11.566;2022-12-07T07:18:24;95630.13;;;3.12;90.86
25420;BME280;13354;48.174;11.566;2022-12-07T07:20:50;95618.38;;;3.16;90.14
25420;BME280;13354;48.174;11.566;2022-12-07T07:23:16;95621.44;;;3.11;89.45
25420;BME280;13354;48.174;11.566;2022-12-07T07:25:41;95622.88;;;3.06;88.85
25420;BME280;13354;48.174;11.566;2022-12-07T07:28:07;95631.00;;;2.75;89.80
25420;BME280;13354;48.174;11.566;2022-12-07T07:30:32;95618.03;;;2.83;90.42
25420;BME280;13354;48.174;11.566;2022-12-07T07:32:58;95627.72;;;3.01;88.92
25420;BME280;13354;48.174;11.566;2022-12-07T07:35:24;95626.81;;;2.92;88.93
25420;BME280;13354;48.174;11.566;2022-12-07T07:37:50;95623.09;;;2.95;88.13
25420;BME280;13354;48.174;11.566;2022-12-07T07:40:15;95633.13;;;2.89;88.61
25420;BME280;13354;48.174;11.566;2022-12-07T07:42:40;95631.22;;;2.92;89.31
25420;BME280;13354;48.174;11.566;2022-12-07T07:45:06;95622.94;;;2.96;90.26
25420;BME280;13354;48.174;11.566;2022-12-07T07:47:31;95630.19;;;3.02;89.13
25420;BME280;13354;48.174;11.566;2022-12-07T07:49:57;95625.88;;;3.11;89.22
25420;BME280;13354;48.174;11.566;2022-12-07T07:52:22;95639.31;;;3.16;90.68
25420;BME280;13354;48.174;11.566;2022-12-07T07:54:47;95638.38;;;3.17;88.52
25420;BME280;13354;48.174;11.566;2022-12-07T07:57:13;95637.63;;;2.97;88.38
25420;BME280;13354;48.174;11.566;2022-12-07T07:59:39;95633.88;;;3.09;87.54
25420;BME280;13354;48.174;11.566;2022-12-07T08:02:04;95631.53;;;3.06;87.35
25420;BME280;13354;48.174;11.566;2022-12-07T08:04:29;95635.63;;;2.91;87.32
25420;BME280;13354;48.174;11.566;2022-12-07T08:06:54;95638.03;;;3.02;87.14
25420;BME280;13354;48.174;11.566;2022-12-07T08:09:21;95637.06;;;2.76;87.57
25420;BME280;13354;48.174;11.566;2022-12-07T08:11:46;95637.00;;;2.85;87.88
25420;BME280;13354;48.174;11.566;2022-12-07T08:14:12;95637.72;;;2.87;87.47
25420;BME280;13354;48.174;11.566;2022-12-07T08:16:37;95643.66;;;3.07;86.92
25420;BME280;13354;48.174;11.566;2022-12-07T08:19:04;95645.84;;;2.84;87.39
25420;BME280;13354;48.174;11.566;2022-12-07T08:21:30;95649.31;;;2.75;87.94
25420;BME280;13354;48.174;11.566;2022-12-07T08:23:57;95647.72;;;2.92;87.73
25420;BME280;13354;48.174;11.566;2022-12-07T08:26:22;95655.34;;;2.76;88.18
25420;BME280;13354;48.174;11.566;2022-12-07T08:28:47;95651.88;;;2.85;88.33
25420;BME280;13354;48.174;11.566;2022-12-07T08:31:15;95644.47;;;2.80;88.28
25420;BME280;13354;48.174;11.566;2022-12-07T08:33:41;95648.88;;;3.07;87.78
25420;BME280;13354;48.174;11.566;2022-12-07T08:36:11;95647.38;;;3.05;87.40
25420;BME280;13354;48.174;11.566;2022-12-07T08:38:38;95641.88;;;2.98;87.41
25420;BME280;13354;48.174;11.566;2022-12-07T08:41:04;95645.53;;;3.15;86.81
25420;BME280;13354;48.174;11.566;2022-12-07T08:43:30;95643.81;;;3.24;86.21
25420;BME280;13354;48.174;11.566;2022-12-07T08:46:19;95651.50;;;3.07;85.96
25420;BME280;13354;48.174;11.566;2022-12-07T08:49:09;95639.72;;;3.21;86.04
25420;BME280;13354;48.174;11.566;2022-12-07T08:51:36;95650.47;;;3.18;85.40
25420;BME280;13354;48.174;11.566;2022-12-07T08:54:04;95650.66;;;3.07;85.53
25420;BME280;13354;48.174;11.566;2022-12-07T08:56:31;95651.34;;;3.09;86.18
25420;BME280;13354;48.174;11.566;2022-12-07T08:58:57;95645.91;;;3.38;85.45
25420;BME280;13354;48.174;11.566;2022-12-07T09:01:23;95656.44;;;3.10;85.72
25420;BME280;13354;48.174;11.566;2022-12-07T09:03:48;95645.91;;;3.20;86.07
25420;BME280;13354;48.174;11.566;2022-12-07T09:06:13;95649.41;;;3.11;85.67
25420;BME280;13354;48.174;11.566;2022-12-07T09:08:41;95647.38;;;3.05;86.13
25420;BME280;13354;48.174;11.566;2022-12-07T09:11:09;95647.31;;;3.14;86.09
25420;BME280;13354;48.174;11.566;2022-12-07T09:13:34;95653.09;;;3.18;85.36
25420;BME280;13354;48.174;11.566;2022-12-07T09:15:59;95645.81;;;3.12;85.25
25420;BME280;13354;48.174;11.566;2022-12-07T09:18:24;95635.44;;;3.38;83.85
25420;BME280;13354;48.174;11.566;2022-12-07T09:20:50;95641.09;;;3.61;82.36
25420;BME280;13354;48.174;11.566;2022-12-07T09:23:16;95638.38;;;3.53;82.25
25420;BME280;13354;48.174;11.566;2022-12-07T09:25:41;95645.19;;;3.63;81.29
25420;BME280;13354;48.174;11.566;2022-12-07T09:28:07;95641.44;;;3.66;80.38
25420;BME280;13354;48.174;11.566;2022-12-07T09:30:32;95644.59;;;3.52;80.82
25420;BME280;13354;48.174;11.566;2022-12-07T09:32:57;95646.97;;;3.63;80.38
25420;BME280;13354;48.174;11.566;2022-12-07T09:35:25;95645.81;;;3.57;79.92
25420;BME280;13354;48.174;11.566;2022-12-07T09:37:50;95644.88;;;3.67;78.91
25420;BME280;13354;48.174;11.566;2022-12-07T09:40:17;95643.63;;;3.71;79.29
25420;BME280;13354;48.174;11.566;2022-12-07T09:42:47;95638.44;;;3.97;78.62
25420;BME280;13354;48.174;11.566;2022-12-07T09:45:21;95640.47;;;3.85;78.95
25420;BME280;13354;48.174;11.566;2022-12-07T09:47:47;95633.59;;;3.84;78.16
25420;BME280;13354;48.174;11.566;2022-12-07T09:50:19;95631.25;;;3.99;77.82
25420;BME280;13354;48.174;11.566;2022-12-07T09:52:45;95626.38;;;4.04;77.28
25420;BME280;13354;48.174;11.566;2022-12-07T09:55:14;95633.25;;;4.05;77.70
25420;BME280;13354;48.174;11.566;2022-12-07T09:57:41;95636.19;;;4.02;77.71
25420;BME280;13354;48.174;11.566;2022-12-07T10:00:12;95622.09;;;4.03;77.58
25420;BME280;13354;48.174;11.566;2022-12-07T10:02:41;95622.97;;;4.11;77.05
25420;BME280;13354;48.174;11.566;2022-12-07T10:05:13;95612.66;;;4.10;76.69
25420;BME280;13354;48.174;11.566;2022-12-07T10:07:39;95619.91;;;4.16;76.67
25420;BME280;13354;48.174;11.566;2022-12-07T10:10:19;95617.19;;;4.26;75.76
25420;BME280;13354;48.174;11.566;2022-12-07T10:12:59;95616.63;;;4.14;76.13
25420;BME280;13354;48.174;11.566;2022-12-07T10:18:25;95614.81;;;4.15;76.18
25420;BME280;13354;48.174;11.566;2022-12-07T10:20:59;95610.91;;;4.19;75.26
25420;BME280;13354;48.174;11.566;2022-12-07T10:23:24;95612.25;;;4.23;75.19
25420;BME280;13354;48.174;11.566;2022-12-07T10:25:50;95611.34;;;4.32;75.23
25420;BME280;13354;48.174;11.566;2022-12-07T10:28:19;95607.94;;;4.14;76.78
25420;BME280;13354;48.174;11.566;2022-12-07T10:31:00;95608.50;;;4.25;76.88
25420;BME280;13354;48.174;11.566;2022-12-07T10:33:35;95606.91;;;4.32;76.11
25420;BME280;13354;48.174;11.566;2022-12-07T10:36:16;95616.50;;;4.50;74.90
25420;BME280;13354;48.174;11.566;2022-12-07T10:38:52;95612.19;;;4.41;73.54
25420;BME280;13354;48.174;11.566;2022-12-07T10:41:17;95608.91;;;4.39;72.39
25420;BME280;13354;48.174;11.566;2022-12-07T10:43:49;95606.97;;;4.49;72.96
25420;BME280;13354;48.174;11.566;2022-12-07T10:52:08;95590.38;;;4.74;70.66
25420;BME280;13354;48.174;11.566;2022-12-07T10:57:43;95586.38;;;4.54;68.11
25420;BME280;13354;48.174;11.566;2022-12-07T11:00:23;95586.63;;;4.77;67.64
25420;BME280;13354;48.174;11.566;2022-12-07T11:03:15;95586.41;;;5.04;68.11
25420;BME280;13354;48.174;11.566;2022-12-07T11:05:45;95573.34;;;5.62;66.22
25420;BME280;13354;48.174;11.566;2022-12-07T11:08:28;95569.91;;;6.10;64.13
25420;BME280;13354;48.174;11.566;2022-12-07T11:16:24;95562.13;;;6.89;58.27
25420;BME280;13354;48.174;11.566;2022-12-07T11:21:55;95554.91;;;6.83;58.30
25420;BME280;13354;48.174;11.566;2022-12-07T11:24:35;95556.59;;;7.07;57.98
25420;BME280;13354;48.174;11.566;2022-12-07T11:30:09;95545.16;;;6.91;56.45
25420;BME280;13354;48.174;11.566;2022-12-07T11:33:02;95551.63;;;6.81;57.81
25420;BME280;13354;48.174;11.566;2022-12-07T11:38:11;95547.41;;;7.02;57.29
25420;BME280;13354;48.174;11.566;2022-12-07T11:40:40;95547.22;;;6.73;58.01
25420;BME280;13354;48.174;11.566;2022-12-07T11:43:15;95546.44;;;6.64;58.63
25420;BME280;13354;48.174;11.566;2022-12-07T11:45:46;95534.28;;;6.55;58.90
25420;BME280;13354;48.174;11.566;2022-12-07T11:48:20;95537.66;;;6.33;58.62
25420;BME280;13354;48.174;11.566;2022-12-07T11:50:51;95536.44;;;6.51;58.06
25420;BME280;13354;48.174;11.566;2022-12-07T11:56:16;95522.22;;;6.29;57.91
25420;BME280;13354;48.174;11.566;2022-12-07T12:01:35;95531.81;;;6.06;59.20
25420;BME280;13354;48.174;11.566;2022-12-07T12:06:39;95520.34;;;5.82;59.65
25420;BME280;13354;48.174;11.566;2022-12-07T12:09:17;95521.50;;;5.72;60.00
25420;BME280;13354;48.174;11.566;2022-12-07T12:20:43;95512.13;;;5.37;60.76
25420;BME280;13354;48.174;11.566;2022-12-07T12:23:17;95502.97;;;5.49;60.67
25420;BME280;13354;48.174;11.566;2022-12-07T12:25:47;95498.69;;;5.48;60.80
25420;BME280;13354;48.174;11.566;2022-12-07T12:28:41;95500.47;;;5.55;60.23
25420;BME280;13354;48.174;11.566;2022-12-07T12:31:32;95507.72;;;5.45;60.75
25420;BME280;13354;48.174;11.566;2022-12-07T12:34:01;95498.19;;;5.36;60.68
25420;BME280;13354;48.174;11.566;2022-12-07T12:36:44;95502.63;;;5.44;60.64
25420;BME280;13354;48.174;11.566;2022-12-07T12:39:15;95499.19;;;5.68;61.11
25420;BME280;13354;48.174;11.566;2022-12-07T12:54:31;95498.81;;;5.95;59.76
25420;BME280;13354;48.174;11.566;2022-12-07T12:57:18;95489.91;;;6.13;59.33
25420;BME280;13354;48.174;11.566;2022-12-07T13:15:46;95478.03;;;7.41;56.10
25420;BME280;13354;48.174;11.566;2022-12-07T13:21:02;95482.41;;;7.49;56.40
25420;BME280;13354;48.174;11.566;2022-12-07T13:23:36;95478.31;;;7.46;56.40
25420;BME280;13354;48.174;11.566;2022-12-07T13:26:22;95476.28;;;7.34;56.73
25420;BME280;13354;48.174;11.566;2022-12-07T13:28:49;95467.13;;;7.21;56.91
25420;BME280;13354;48.174;11.566;2022-12-07T13:31:34;95473.63;;;6.88;57.04
25420;BME280;13354;48.174;11.566;2022-12-07T13:34:04;95475.84;;;6.76;57.51
25420;BME280;13354;48.174;11.566;2022-12-07T13:36:37;95478.81;;;6.73;57.86
25420;BME280;13354;48.174;11.566;2022-12-07T13:39:24;95471.63;;;6.67;57.82
25420;BME280;13354;48.174;11.566;2022-12-07T13:41:55;95472.44;;;6.67;57.72
25420;BME280;13354;48.174;11.566;2022-12-07T13:44:23;95474.66;;;6.47;58.21
25420;BME280;13354;48.174;11.566;2022-12-07T13:49:21;95471.94;;;6.33;58.44
25420;BME280;13354;48.174;11.566;2022-12-07T13:51:47;95473.41;;;6.35;59.24
25420;BME280;13354;48.174;11.566;2022-12-07T13:54:14;95470.53;;;6.14;59.32
25420;BME280;13354;48.174;11.566;2022-12-07T13:56:40;95479.09;;;5.99;60.45
25420;BME280;13354;48.174;11.566;2022-12-07T13:59:13;95472.56;;;5.79;61.02
25420;BME280;13354;48.174;11.566;2022-12-07T14:01:38;95465.16;;;5.82;61.99
25420;BME280;13354;48.174;11.566;2022-12-07T14:04:33;95464.53;;;5.72;61.59
25420;BME280;13354;48.174;11.566;2022-12-07T14:07:00;95469.47;;;5.67;61.82
25420;BME280;13354;48.174;11.566;2022-12-07T14:09:27;95455.50;;;5.58;62.04
25420;BME280;13354;48.174;11.566;2022-12-07T14:11:56;95458.81;;;5.61;61.45
25420;BME280;13354;48.174;11.566;2022-12-07T14:14:46;95461.63;;;5.35;62.67
25420;BME280;13354;48.174;11.566;2022-12-07T14:17:17;95460.47;;;5.21;62.92
25420;BME280;13354;48.174;11.566;2022-12-07T14:24:46;95458.00;;;5.11;63.78
25420;BME280;13354;48.174;11.566;2022-12-07T14:27:21;95465.22;;;5.33;63.57
25420;BME280;13354;48.174;11.566;2022-12-07T14:29:47;95451.94;;;5.27;62.86
25420;BME280;13354;48.174;11.566;2022-12-07T14:32:20;95456.69;;;5.40;62.35
25420;BME280;13354;48.174;11.566;2022-12-07T14:37:21;95454.72;;;5.33;63.38
25420;BME280;13354;48.174;11.566;2022-12-07T14:39:46;95452.09;;;5.50;62.92
25420;BME280;13354;48.174;11.566;2022-12-07T14:42:12;95457.34;;;5.33;63.30
25420;BME280;13354;48.174;11.566;2022-12-07T14:44:37;95455.19;;;5.37;62.74
25420;BME280;13354;48.174;11.566;2022-12-07T14:47:02;95464.38;;;5.41;62.87
25420;BME280;13354;48.174;11.566;2022-12-07T14:49:27;95463.91;;;5.29;63.07
25420;BME280;13354;48.174;11.566;2022-12-07T14:51:53;95459.78;;;5.19;63.51
25420;BME280;13354;48.174;11.566;2022-12-07T14:54:19;95460.66;;;5.19;63.71
25420;BME280;13354;48.174;11.566;2022-12-07T14:56:46;95451.59;;;5.14;63.08
25420;BME280;13354;48.174;11.566;2022-12-07T14:59:15;95456.84;;;5.14;62.79